createdAt,value
2018-03-15T00:08:44.880Z,45.30
2018-03-15T00:18:56.869Z,45.80
2018-03-15T00:29:11.263Z,45.70
2018-03-15T00:39:20.655Z,45.90
2018-03-15T00:49:30.085Z,45.90
2018-03-15T00:59:45.790Z,45.90
2018-03-15T01:10:00.261Z,45.90
2018-03-15T01:20:08.060Z,45.90
2018-03-15T01:30:20.678Z,46.30
2018-03-15T01:40:28.516Z,46.30
2018-03-15T01:50:42.090Z,46.30
2018-03-15T02:00:56.142Z,46.30
2018-03-15T02:11:07.485Z,46.20
2018-03-15T02:21:17.162Z,46.50
2018-03-15T02:31:26.407Z,46.30
2018-03-15T02:41:41.622Z,46.00
2018-03-15T02:51:52.678Z,46.20
2018-03-15T03:02:02.329Z,46.80
2018-03-15T03:12:16.020Z,46.10
2018-03-15T03:22:25.061Z,46.30
2018-03-15T03:32:33.833Z,46.20
2018-03-15T03:42:43.763Z,46.00
2018-03-15T03:52:56.373Z,45.90
2018-03-15T04:03:10.058Z,46.00
2018-03-15T04:13:19.876Z,46.00
2018-03-15T04:23:31.513Z,45.80
2018-03-15T04:33:44.951Z,45.70
2018-03-15T04:43:56.240Z,45.60
2018-03-15T04:54:11.156Z,45.60
2018-03-15T05:04:23.195Z,45.40
2018-03-15T05:14:34.833Z,45.40
2018-03-15T05:24:56.072Z,45.60
2018-03-15T05:35:09.390Z,45.60
2018-03-15T05:45:25.418Z,45.50
2018-03-15T05:55:38.678Z,46.10
2018-03-15T06:05:52.580Z,46.10
2018-03-15T06:16:02.202Z,45.90
2018-03-15T06:26:11.064Z,45.60
2018-03-15T06:36:19.545Z,45.10
2018-03-15T06:46:34.650Z,45.00
2018-03-15T06:56:44.342Z,44.90
2018-03-15T07:06:59.315Z,44.70
2018-03-15T07:17:12.878Z,44.70
2018-03-15T07:27:23.750Z,44.60
2018-03-15T07:37:34.451Z,44.50
2018-03-15T07:47:45.618Z,44.40
2018-03-15T07:57:57.310Z,44.30
2018-03-15T08:08:14.687Z,44.60
2018-03-15T08:18:27.467Z,45.30
2018-03-15T08:28:39.159Z,45.20
2018-03-15T08:38:49.137Z,45.00
2018-03-15T08:48:58.145Z,45.20
2018-03-15T08:59:08.944Z,45.30
2018-03-15T09:09:26.339Z,45.50
2018-03-15T09:19:36.604Z,45.60
2018-03-15T09:29:46.048Z,44.60
2018-03-15T09:40:01.594Z,44.60
2018-03-15T09:50:16.945Z,45.00
2018-03-15T10:00:31.136Z,45.00
2018-03-15T10:10:42.026Z,45.40
2018-03-15T10:20:51.041Z,45.30
2018-03-15T10:31:04.810Z,45.30
2018-03-15T10:41:14.297Z,45.90
2018-03-15T10:51:31.022Z,44.80
2018-03-15T11:01:44.558Z,45.30
2018-03-15T11:12:02.657Z,45.10
2018-03-15T11:22:14.026Z,45.00
2018-03-15T11:32:28.585Z,45.10
2018-03-15T11:42:38.206Z,45.10
2018-03-15T11:52:56.056Z,44.80
2018-03-15T12:03:07.973Z,44.80
2018-03-15T12:13:20.871Z,44.30
2018-03-15T12:23:32.103Z,44.40
2018-03-15T12:33:41.925Z,44.10
2018-03-15T12:43:52.265Z,44.10
2018-03-15T12:54:05.398Z,43.90
2018-03-15T13:04:15.430Z,44.00
2018-03-15T13:14:27.246Z,43.90
2018-03-15T13:24:40.334Z,43.50
2018-03-15T13:34:49.785Z,43.50
2018-03-15T13:45:04.706Z,43.60
2018-03-15T13:55:22.123Z,43.50
2018-03-15T14:05:35.654Z,43.50
2018-03-15T14:15:49.269Z,43.50
2018-03-15T14:25:57.530Z,43.30
2018-03-15T14:36:07.607Z,43.50
2018-03-15T14:46:18.690Z,43.50
2018-03-15T14:56:31.871Z,43.50
2018-03-15T15:06:43.613Z,43.30
2018-03-15T15:16:54.150Z,43.20
2018-03-15T15:27:08.763Z,43.20
2018-03-15T15:37:17.559Z,43.00
2018-03-15T15:47:27.418Z,42.90
2018-03-15T15:57:39.687Z,43.00
2018-03-15T16:07:48.091Z,42.90
2018-03-15T16:32:25.185Z,43.10
2018-03-15T16:42:34.864Z,43.80
2018-03-15T16:52:43.513Z,44.50
2018-03-15T17:02:53.621Z,44.40
2018-03-15T17:13:09.512Z,44.50
2018-03-15T17:23:17.527Z,44.40
2018-03-15T17:33:26.992Z,44.20
2018-03-15T17:43:36.119Z,44.20
2018-03-15T17:53:49.265Z,44.10
2018-03-15T18:03:58.751Z,44.00
2018-03-15T18:14:07.167Z,43.90
2018-03-15T18:24:16.572Z,43.50
2018-03-15T18:34:25.663Z,43.50
2018-03-15T18:44:33.538Z,43.40
2018-03-15T18:54:44.888Z,43.20
2018-03-15T19:04:55.288Z,43.00
2018-03-15T19:15:04.973Z,43.00
2018-03-15T19:25:15.825Z,42.70
2018-03-15T19:35:27.458Z,42.60
2018-03-15T19:45:35.201Z,42.60
2018-03-15T19:55:49.814Z,42.40
2018-03-15T20:06:00.654Z,42.40
2018-03-15T20:16:11.916Z,42.30
2018-03-15T20:26:21.464Z,42.10
2018-03-15T20:36:29.504Z,42.00
2018-03-15T20:46:42.196Z,41.90
2018-03-15T20:56:54.987Z,41.90
2018-03-15T21:07:06.436Z,42.40
2018-03-15T21:17:19.524Z,43.60
2018-03-15T21:27:28.774Z,43.50
2018-03-15T21:37:37.266Z,43.30
2018-03-15T21:47:46.820Z,42.90
2018-03-15T21:57:56.252Z,42.50
2018-03-15T22:08:04.886Z,42.40
2018-03-15T22:18:20.306Z,42.10
2018-03-15T22:28:30.222Z,41.70
2018-03-15T22:38:39.060Z,41.70
2018-03-15T22:48:47.971Z,41.60
2018-03-15T22:58:58.774Z,41.30
2018-03-15T23:09:07.840Z,41.10
2018-03-15T23:19:26.138Z,41.00
2018-03-15T23:29:38.221Z,40.90
2018-03-15T23:39:47.836Z,40.60
2018-03-15T23:49:57.386Z,40.60
